sensor_id;sensor_type;location;lat;lon;timestamp;pressure;altitude;pressure_sealevel;temperature;humidity
78894;BME280;68282;42.698;23.350;2023-09-08T00:01:20;95957.16;;;21.81;55.72
78894;BME280;68282;42.698;23.350;2023-09-08T00:03:46;95957.16;;;21.81;56.11
78894;BME280;68282;42.698;23.350;2023-09-08T00:06:11;95957.44;;;21.79;55.95
78894;BME280;68282;42.698;23.350;2023-09-08T00:08:36;95955.50;;;21.80;56.21
78894;BME280;68282;42.698;23.350;2023-09-08T00:11:02;95966.56;;;21.80;56.39
78894;BME280;68282;42.698;23.350;2023-09-08T00:13:27;95964.16;;;21.73;56.25
78894;BME280;68282;42.698;23.350;2023-09-08T00:15:53;95959.97;;;21.75;56.30
78894;BME280;68282;42.698;23.350;2023-09-08T00:18:18;95960.84;;;21.71;56.27
78894;BME280;68282;42.698;23.350;2023-09-08T00:20:43;95950.09;;;21.69;56.30
78894;BME280;68282;42.698;23.350;2023-09-08T00:23:09;95953.63;;;21.75;56.04
78894;BME280;68282;42.698;23.350;2023-09-08T00:25:34;95955.84;;;21.73;55.51
78894;BME280;68282;42.698;23.350;2023-09-08T00:28:00;95953.84;;;21.78;55.16
78894;BME280;68282;42.698;23.350;2023-09-08T00:30:25;95949.47;;;21.72;55.21
78894;BME280;68282;42.698;23.350;2023-09-08T00:32:51;95951.44;;;21.72;54.96
78894;BME280;68282;42.698;23.350;2023-09-08T00:35:16;95960.09;;;21.65;54.72
78894;BME280;68282;42.698;23.350;2023-09-08T00:37:42;95957.56;;;21.69;54.96
78894;BME280;68282;42.698;23.350;2023-09-08T00:40:07;95944.00;;;21.67;54.75
78894;BME280;68282;42.698;23.350;2023-09-08T00:42:36;95952.31;;;21.67;54.53
78894;BME280;68282;42.698;23.350;2023-09-08T00:45:02;95940.19;;;21.63;54.74
78894;BME280;68282;42.698;23.350;2023-09-08T00:47:28;95947.38;;;21.64;54.56
78894;BME280;68282;42.698;23.350;2023-09-08T00:49:53;95951.75;;;21.70;54.35
78894;BME280;68282;42.698;23.350;2023-09-08T00:52:19;95940.13;;;21.68;54.43
78894;BME280;68282;42.698;23.350;2023-09-08T00:54:44;95946.47;;;21.69;54.38
78894;BME280;68282;42.698;23.350;2023-09-08T00:57:10;95945.13;;;21.66;54.62
78894;BME280;68282;42.698;23.350;2023-09-08T00:59:36;95946.25;;;21.65;54.68
78894;BME280;68282;42.698;23.350;2023-09-08T01:02:02;95945.75;;;21.58;54.66
78894;BME280;68282;42.698;23.350;2023-09-08T01:04:28;95953.47;;;21.61;54.62
78894;BME280;68282;42.698;23.350;2023-09-08T01:06:54;95946.81;;;21.62;54.61
78894;BME280;68282;42.698;23.350;2023-09-08T01:09:20;95954.00;;;21.63;54.75
78894;BME280;68282;42.698;23.350;2023-09-08T01:11:46;95943.25;;;21.61;54.33
78894;BME280;68282;42.698;23.350;2023-09-08T01:14:12;95945.75;;;21.58;54.39
78894;BME280;68282;42.698;23.350;2023-09-08T01:16:39;95945.19;;;21.61;53.98
78894;BME280;68282;42.698;23.350;2023-09-08T01:19:09;95939.38;;;21.57;54.32
78894;BME280;68282;42.698;23.350;2023-09-08T01:24:31;95947.75;;;21.52;54.14
78894;BME280;68282;42.698;23.350;2023-09-08T01:27:02;95938.97;;;21.45;54.08
78894;BME280;68282;42.698;23.350;2023-09-08T01:29:29;95933.16;;;21.46;54.10
78894;BME280;68282;42.698;23.350;2023-09-08T01:31:55;95937.81;;;21.51;53.86
78894;BME280;68282;42.698;23.350;2023-09-08T01:34:22;95923.84;;;21.37;54.20
78894;BME280;68282;42.698;23.350;2023-09-08T01:36:47;95935.97;;;21.41;53.98
78894;BME280;68282;42.698;23.350;2023-09-08T01:39:13;95931.53;;;21.40;53.79
78894;BME280;68282;42.698;23.350;2023-09-08T01:41:38;95928.72;;;21.45;53.53
78894;BME280;68282;42.698;23.350;2023-09-08T01:44:04;95923.50;;;21.44;53.54
78894;BME280;68282;42.698;23.350;2023-09-08T01:46:33;95927.38;;;21.43;53.48
78894;BME280;68282;42.698;23.350;2023-09-08T01:48:58;95923.53;;;21.39;53.62
78894;BME280;68282;42.698;23.350;2023-09-08T01:51:24;95930.41;;;21.41;53.58
78894;BME280;68282;42.698;23.350;2023-09-08T01:53:49;95931.06;;;21.33;54.21
78894;BME280;68282;42.698;23.350;2023-09-08T01:56:15;95931.53;;;21.40;53.95
78894;BME280;68282;42.698;23.350;2023-09-08T01:58:40;95924.34;;;21.39;54.05
78894;BME280;68282;42.698;23.350;2023-09-08T02:01:05;95929.06;;;21.39;54.09
78894;BME280;68282;42.698;23.350;2023-09-08T02:03:34;95929.88;;;21.39;54.32
78894;BME280;68282;42.698;23.350;2023-09-08T02:05:59;95922.78;;;21.33;54.23
78894;BME280;68282;42.698;23.350;2023-09-08T02:08:25;95923.88;;;21.32;54.44
78894;BME280;68282;42.698;23.350;2023-09-08T02:10:50;95919.44;;;21.36;54.39
78894;BME280;68282;42.698;23.350;2023-09-08T02:13:16;95921.97;;;21.33;54.28
78894;BME280;68282;42.698;23.350;2023-09-08T02:15:41;95920.59;;;21.30;54.35
78894;BME280;68282;42.698;23.350;2023-09-08T02:18:07;95927.22;;;21.29;54.68
78894;BME280;68282;42.698;23.350;2023-09-08T02:20:33;95923.69;;;21.23;54.74
78894;BME280;68282;42.698;23.350;2023-09-08T02:23:04;95917.94;;;21.20;54.92
78894;BME280;68282;42.698;23.350;2023-09-08T02:25:30;95922.34;;;21.21;55.09
78894;BME280;68282;42.698;23.350;2023-09-08T02:27:55;95910.22;;;21.16;54.94
78894;BME280;68282;42.698;23.350;2023-09-08T02:30:21;95919.34;;;21.17;55.30
78894;BME280;68282;42.698;23.350;2023-09-08T02:32:46;95914.91;;;21.16;55.54
78894;BME280;68282;42.698;23.350;2023-09-08T02:35:12;95910.22;;;21.16;55.62
78894;BME280;68282;42.698;23.350;2023-09-08T02:37:37;95926.28;;;21.14;55.75
78894;BME280;68282;42.698;23.350;2023-09-08T02:40:03;95923.31;;;21.06;56.04
78894;BME280;68282;42.698;23.350;2023-09-08T02:42:29;95921.66;;;21.05;56.13
78894;BME280;68282;42.698;23.350;2023-09-08T02:44:54;95914.78;;;21.02;55.97
78894;BME280;68282;42.698;23.350;2023-09-08T02:47:20;95921.97;;;21.03;56.11
78894;BME280;68282;42.698;23.350;2023-09-08T02:49:45;95912.06;;;20.97;56.29
78894;BME280;68282;42.698;23.350;2023-09-08T02:52:10;95908.75;;;20.95;56.25
78894;BME280;68282;42.698;23.350;2023-09-08T02:54:36;95905.72;;;20.96;56.16
78894;BME280;68282;42.698;23.350;2023-09-08T02:57:01;95908.19;;;20.98;56.38
78894;BME280;68282;42.698;23.350;2023-09-08T02:59:27;95909.59;;;20.95;56.61
78894;BME280;68282;42.698;23.350;2023-09-08T03:01:52;95912.06;;;20.97;56.67
78894;BME280;68282;42.698;23.350;2023-09-08T03:04:18;95892.53;;;20.88;56.79
78894;BME280;68282;42.698;23.350;2023-09-08T03:06:43;95901.09;;;20.87;57.03
78894;BME280;68282;42.698;23.350;2023-09-08T03:09:08;95903.84;;;20.87;57.11
78894;BME280;68282;42.698;23.350;2023-09-08T03:11:34;95899.44;;;20.85;56.99
78894;BME280;68282;42.698;23.350;2023-09-08T03:13:59;95890.09;;;20.81;57.21
78894;BME280;68282;42.698;23.350;2023-09-08T03:16:25;95901.44;;;20.80;57.24
78894;BME280;68282;42.698;23.350;2023-09-08T03:18:50;95885.97;;;20.74;57.41
78894;BME280;68282;42.698;23.350;2023-09-08T03:21:16;95895.16;;;20.69;57.65
78894;BME280;68282;42.698;23.350;2023-09-08T03:23:42;95902.31;;;20.70;57.57
78894;BME280;68282;42.698;23.350;2023-09-08T03:26:09;95908.94;;;20.74;58.03
78894;BME280;68282;42.698;23.350;2023-09-08T03:28:36;95906.19;;;20.69;57.81
78894;BME280;68282;42.698;23.350;2023-09-08T03:31:02;95902.34;;;20.65;57.70
78894;BME280;68282;42.698;23.350;2023-09-08T03:33:28;95902.13;;;20.61;58.00
78894;BME280;68282;42.698;23.350;2023-09-08T03:35:53;95902.44;;;20.54;58.29
78894;BME280;68282;42.698;23.350;2023-09-08T03:38:20;95898.56;;;20.55;58.54
78894;BME280;68282;42.698;23.350;2023-09-08T03:40:46;95896.63;;;20.56;58.32
78894;BME280;68282;42.698;23.350;2023-09-08T03:43:11;95904.09;;;20.55;58.25
78894;BME280;68282;42.698;23.350;2023-09-08T03:45:36;95892.25;;;20.50;58.18
78894;BME280;68282;42.698;23.350;2023-09-08T03:48:02;95899.69;;;20.54;58.25
78894;BME280;68282;42.698;23.350;2023-09-08T03:50:28;95892.00;;;20.46;58.58
78894;BME280;68282;42.698;23.350;2023-09-08T03:52:53;95898.63;;;20.50;58.38
78894;BME280;68282;42.698;23.350;2023-09-08T03:55:19;95897.00;;;20.44;58.47
78894;BME280;68282;42.698;23.350;2023-09-08T03:57:45;95897.53;;;20.46;58.80
78894;BME280;68282;42.698;23.350;2023-09-08T04:00:10;95905.81;;;20.46;58.92
78894;BME280;68282;42.698;23.350;2023-09-08T04:02:36;95895.63;;;20.42;58.99
78894;BME280;68282;42.698;23.350;2023-09-08T04:05:02;95903.94;;;20.42;58.72
78894;BME280;68282;42.698;23.350;2023-09-08T04:07:28;95905.06;;;20.35;59.08
78894;BME280;68282;42.698;23.350;2023-09-08T04:09:54;95900.91;;;20.38;58.94
78894;BME280;68282;42.698;23.350;2023-09-08T04:12:19;95906.44;;;20.38;58.92
78894;BME280;68282;42.698;23.350;2023-09-08T04:14:45;95900.63;;;20.39;59.06
78894;BME280;68282;42.698;23.350;2023-09-08T04:17:11;95895.97;;;20.35;59.11
78894;BME280;68282;42.698;23.350;2023-09-08T04:19:36;95901.72;;;20.38;58.98
78894;BME280;68282;42.698;23.350;2023-09-08T04:22:02;95893.19;;;20.35;59.23
78894;BME280;68282;42.698;23.350;2023-09-08T04:24:28;95911.97;;;20.38;59.43
78894;BME280;68282;42.698;23.350;2023-09-08T04:26:53;95904.25;;;20.35;59.39
78894;BME280;68282;42.698;23.350;2023-09-08T04:29:19;95909.78;;;20.35;59.64
78894;BME280;68282;42.698;23.350;2023-09-08T04:31:44;95911.75;;;20.29;59.62
78894;BME280;68282;42.698;23.350;2023-09-08T04:34:10;95913.97;;;20.27;59.85
78894;BME280;68282;42.698;23.350;2023-09-08T04:36:35;95909.28;;;20.28;59.98
78894;BME280;68282;42.698;23.350;2023-09-08T04:39:01;95916.16;;;20.30;59.75
78894;BME280;68282;42.698;23.350;2023-09-08T04:41:26;95921.94;;;20.34;59.80
78894;BME280;68282;42.698;23.350;2023-09-08T04:43:51;95923.59;;;20.35;59.95
78894;BME280;68282;42.698;23.350;2023-09-08T04:46:18;95922.50;;;20.31;60.28
78894;BME280;68282;42.698;23.350;2023-09-08T04:48:43;95915.63;;;20.23;60.08
78894;BME280;68282;42.698;23.350;2023-09-08T04:51:08;95905.97;;;20.26;60.22
78894;BME280;68282;42.698;23.350;2023-09-08T04:53:34;95916.16;;;20.30;60.40
78894;BME280;68282;42.698;23.350;2023-09-08T04:56:01;95916.41;;;20.34;60.46
78894;BME280;68282;42.698;23.350;2023-09-08T04:58:27;95926.66;;;20.33;60.53
78894;BME280;68282;42.698;23.350;2023-09-08T05:00:53;95922.75;;;20.34;60.96
78894;BME280;68282;42.698;23.350;2023-09-08T05:03:18;95927.72;;;20.37;60.78
78894;BME280;68282;42.698;23.350;2023-09-08T05:05:44;95922.47;;;20.36;60.75
78894;BME280;68282;42.698;23.350;2023-09-08T05:08:10;95922.75;;;20.34;60.72
78894;BME280;68282;42.698;23.350;2023-09-08T05:10:35;95924.69;;;20.39;60.53
78894;BME280;68282;42.698;23.350;2023-09-08T05:13:01;95919.16;;;20.39;60.64
78894;BME280;68282;42.698;23.350;2023-09-08T05:15:26;95920.53;;;20.36;60.61
78894;BME280;68282;42.698;23.350;2023-09-08T05:17:52;95925.19;;;20.41;60.64
78894;BME280;68282;42.698;23.350;2023-09-08T05:20:17;95921.53;;;20.51;60.35
78894;BME280;68282;42.698;23.350;2023-09-08T05:22:42;95921.84;;;20.49;60.70
78894;BME280;68282;42.698;23.350;2023-09-08T05:25:08;95925.97;;;20.52;60.48
78894;BME280;68282;42.698;23.350;2023-09-08T05:27:34;95922.91;;;20.53;60.03
78894;BME280;68282;42.698;23.350;2023-09-08T05:29:59;95916.81;;;20.57;59.49
78894;BME280;68282;42.698;23.350;2023-09-08T05:32:24;95921.47;;;20.61;59.37
78894;BME280;68282;42.698;23.350;2023-09-08T05:34:50;95925.81;;;20.67;58.95
78894;BME280;68282;42.698;23.350;2023-09-08T05:37:15;95917.03;;;20.65;59.07
78894;BME280;68282;42.698;23.350;2023-09-08T05:39:41;95927.19;;;20.70;58.58
78894;BME280;68282;42.698;23.350;2023-09-08T05:42:06;95928.84;;;20.76;58.63
78894;BME280;68282;42.698;23.350;2023-09-08T05:44:32;95927.75;;;20.72;58.83
78894;BME280;68282;42.698;23.350;2023-09-08T05:46:57;95918.63;;;20.77;58.47
78894;BME280;68282;42.698;23.350;2023-09-08T05:49:23;95927.41;;;20.79;58.71
78894;BME280;68282;42.698;23.350;2023-09-08T05:51:48;95930.47;;;20.82;58.20
78894;BME280;68282;42.698;23.350;2023-09-08T05:54:14;95933.16;;;20.88;57.82
78894;BME280;68282;42.698;23.350;2023-09-08T05:56:40;95933.47;;;20.86;57.86
78894;BME280;68282;42.698;23.350;2023-09-08T05:59:05;95934.00;;;20.88;57.59
78894;BME280;68282;42.698;23.350;2023-09-08T06:01:31;95924.63;;;20.84;56.67
78894;BME280;68282;42.698;23.350;2023-09-08T06:03:57;95936.75;;;20.88;55.94
78894;BME280;68282;42.698;23.350;2023-09-08T06:06:22;95936.72;;;20.93;55.52
78894;BME280;68282;42.698;23.350;2023-09-08T06:08:48;95938.91;;;20.96;54.92
78894;BME280;68282;42.698;23.350;2023-09-08T06:11:14;95936.63;;;21.04;54.64
78894;BME280;68282;42.698;23.350;2023-09-08T06:13:39;95915.91;;;21.01;54.45
78894;BME280;68282;42.698;23.350;2023-09-08T06:16:04;95927.16;;;21.10;54.17
78894;BME280;68282;42.698;23.350;2023-09-08T06:18:30;95924.63;;;21.13;53.67
78894;BME280;68282;42.698;23.350;2023-09-08T06:20:56;95926.53;;;21.18;52.37
78894;BME280;68282;42.698;23.350;2023-09-08T06:23:22;95940.91;;;21.20;52.30
78894;BME280;68282;42.698;23.350;2023-09-08T06:25:49;95934.25;;;21.21;52.16
78894;BME280;68282;42.698;23.350;2023-09-08T06:28:14;95938.94;;;21.21;52.13
78894;BME280;68282;42.698;23.350;2023-09-08T06:30:40;95938.63;;;21.22;51.69
78894;BME280;68282;42.698;23.350;2023-09-08T06:33:07;95936.72;;;21.23;50.81
78894;BME280;68282;42.698;23.350;2023-09-08T06:35:33;95943.91;;;21.24;50.74
78894;BME280;68282;42.698;23.350;2023-09-08T06:37:59;95946.34;;;21.25;50.52
78894;BME280;68282;42.698;23.350;2023-09-08T06:40:25;95943.81;;;21.29;49.67
78894;BME280;68282;42.698;23.350;2023-09-08T06:42:50;95943.25;;;21.32;49.28
78894;BME280;68282;42.698;23.350;2023-09-08T06:45:16;95954.28;;;21.37;49.39
78894;BME280;68282;42.698;23.350;2023-09-08T06:47:43;95941.78;;;21.40;49.51
78894;BME280;68282;42.698;23.350;2023-09-08T06:50:09;95952.53;;;21.46;49.48
78894;BME280;68282;42.698;23.350;2023-09-08T06:52:35;95941.38;;;21.52;49.39
78894;BME280;68282;42.698;23.350;2023-09-08T06:55:00;95944.16;;;21.52;49.19
78894;BME280;68282;42.698;23.350;2023-09-08T06:57:26;95946.56;;;21.58;49.15
78894;BME280;68282;42.698;23.350;2023-09-08T06:59:51;95942.94;;;21.63;48.68
78894;BME280;68282;42.698;23.350;2023-09-08T07:02:17;95934.09;;;21.61;47.90
78894;BME280;68282;42.698;23.350;2023-09-08T07:04:42;95946.72;;;21.72;47.97
78894;BME280;68282;42.698;23.350;2023-09-08T07:07:08;95940.91;;;21.74;47.84
78894;BME280;68282;42.698;23.350;2023-09-08T07:09:34;95944.97;;;21.82;46.50
78894;BME280;68282;42.698;23.350;2023-09-08T07:12:01;95942.78;;;21.78;45.93
78894;BME280;68282;42.698;23.350;2023-09-08T07:14:26;95940.47;;;21.86;45.19
78894;BME280;68282;42.698;23.350;2023-09-08T07:16:52;95942.66;;;21.89;44.64
78894;BME280;68282;42.698;23.350;2023-09-08T07:19:17;95949.25;;;21.93;44.23
78894;BME280;68282;42.698;23.350;2023-09-08T07:21:42;95950.53;;;22.01;43.32
78894;BME280;68282;42.698;23.350;2023-09-08T07:24:08;95947.75;;;22.01;43.94
78894;BME280;68282;42.698;23.350;2023-09-08T07:26:33;95946.03;;;22.05;43.88
78894;BME280;68282;42.698;23.350;2023-09-08T07:28:59;95944.84;;;22.11;43.61
78894;BME280;68282;42.698;23.350;2023-09-08T07:31:24;95938.50;;;22.11;43.84
78894;BME280;68282;42.698;23.350;2023-09-08T07:33:50;95934.47;;;22.22;43.26
78894;BME280;68282;42.698;23.350;2023-09-08T07:36:16;95934.09;;;22.29;43.33
78894;BME280;68282;42.698;23.350;2023-09-08T07:38:41;95929.34;;;22.29;42.92
78894;BME280;68282;42.698;23.350;2023-09-08T07:41:07;95926.53;;;22.34;43.19
78894;BME280;68282;42.698;23.350;2023-09-08T07:43:33;95928.72;;;22.37;43.51
78894;BME280;68282;42.698;23.350;2023-09-08T07:45:58;95921.44;;;22.42;42.45
78894;BME280;68282;42.698;23.350;2023-09-08T07:48:23;95934.56;;;22.55;42.63
78894;BME280;68282;42.698;23.350;2023-09-08T07:50:49;95936.13;;;22.61;42.70
78894;BME280;68282;42.698;23.350;2023-09-08T07:53:14;95924.81;;;22.58;41.78
78894;BME280;68282;42.698;23.350;2023-09-08T07:55:40;95922.19;;;22.66;41.31
78894;BME280;68282;42.698;23.350;2023-09-08T07:58:05;95923.00;;;22.67;40.82
78894;BME280;68282;42.698;23.350;2023-09-08T08:00:31;95930.72;;;22.70;41.90
78894;BME280;68282;42.698;23.350;2023-09-08T08:02:57;95925.59;;;22.77;41.16
78894;BME280;68282;42.698;23.350;2023-09-08T08:05:23;95922.75;;;22.82;40.87
78894;BME280;68282;42.698;23.350;2023-09-08T08:07:49;95916.91;;;22.84;41.35
78894;BME280;68282;42.698;23.350;2023-09-08T08:10:15;95909.09;;;22.86;40.18
78894;BME280;68282;42.698;23.350;2023-09-08T08:12:41;95927.81;;;22.94;40.32
78894;BME280;68282;42.698;23.350;2023-09-08T08:15:07;95918.91;;;22.97;40.09
78894;BME280;68282;42.698;23.350;2023-09-08T08:17:35;95917.78;;;22.98;40.48
78894;BME280;68282;42.698;23.350;2023-09-08T08:20:02;95919.63;;;23.03;40.30
78894;BME280;68282;42.698;23.350;2023-09-08T08:22:36;95921.06;;;23.00;40.72
78894;BME280;68282;42.698;23.350;2023-09-08T08:25:02;95922.72;;;23.01;41.20
78894;BME280;68282;42.698;23.350;2023-09-08T08:27:28;95914.47;;;22.96;41.43
78894;BME280;68282;42.698;23.350;2023-09-08T08:29:56;95912.81;;;22.95;41.30
78894;BME280;68282;42.698;23.350;2023-09-08T08:32:22;95910.38;;;22.94;41.29
78894;BME280;68282;42.698;23.350;2023-09-08T08:34:48;95919.22;;;22.96;41.63
78894;BME280;68282;42.698;23.350;2023-09-08T08:37:13;95908.94;;;22.96;40.97
78894;BME280;68282;42.698;23.350;2023-09-08T08:39:39;95911.63;;;23.01;40.54
78894;BME280;68282;42.698;23.350;2023-09-08T08:42:08;95908.34;;;22.99;39.44
78894;BME280;68282;42.698;23.350;2023-09-08T08:44:34;95909.78;;;22.97;40.60
78894;BME280;68282;42.698;23.350;2023-09-08T08:47:02;95906.69;;;22.98;40.40
78894;BME280;68282;42.698;23.350;2023-09-08T08:49:33;95904.97;;;23.03;40.61
78894;BME280;68282;42.698;23.350;2023-09-08T08:51:59;95895.78;;;23.02;39.84
78894;BME280;68282;42.698;23.350;2023-09-08T08:54:34;95901.06;;;23.04;40.57
78894;BME280;68282;42.698;23.350;2023-09-08T08:57:05;95898.91;;;23.14;40.24
78894;BME280;68282;42.698;23.350;2023-09-08T08:59:31;95898.09;;;23.14;40.15
78894;BME280;68282;42.698;23.350;2023-09-08T09:02:01;95897.56;;;23.12;39.59
78894;BME280;68282;42.698;23.350;2023-09-08T09:04:28;95897.84;;;23.10;40.81
78894;BME280;68282;42.698;23.350;2023-09-08T09:06:54;95902.00;;;23.13;40.95
78894;BME280;68282;42.698;23.350;2023-09-08T09:09:20;95901.78;;;23.09;40.67
78894;BME280;68282;42.698;23.350;2023-09-08T09:11:46;95906.81;;;23.07;40.17
78894;BME280;68282;42.698;23.350;2023-09-08T09:14:11;95894.66;;;23.03;40.31
78894;BME280;68282;42.698;23.350;2023-09-08T09:16:43;95901.88;;;23.04;40.59
78894;BME280;68282;42.698;23.350;2023-09-08T09:19:17;95897.97;;;23.05;41.37
78894;BME280;68282;42.698;23.350;2023-09-08T09:21:46;95904.78;;;23.13;39.62
78894;BME280;68282;42.698;23.350;2023-09-08T09:24:28;95908.16;;;23.10;39.70
78894;BME280;68282;42.698;23.350;2023-09-08T09:26:56;95897.13;;;23.05;40.56
78894;BME280;68282;42.698;23.350;2023-09-08T09:29:21;95905.38;;;23.10;40.52
78894;BME280;68282;42.698;23.350;2023-09-08T09:32:06;95887.06;;;23.09;39.88
78894;BME280;68282;42.698;23.350;2023-09-08T09:34:34;95895.00;;;23.15;40.04
78894;BME280;68282;42.698;23.350;2023-09-08T09:37:00;95899.22;;;23.13;40.26
78894;BME280;68282;42.698;23.350;2023-09-08T09:39:26;95899.22;;;23.13;40.90
78894;BME280;68282;42.698;23.350;2023-09-08T09:41:56;95895.09;;;23.10;40.86
78894;BME280;68282;42.698;23.350;2023-09-08T09:44:22;95903.84;;;23.17;41.42
78894;BME280;68282;42.698;23.350;2023-09-08T09:46:48;95894.84;;;23.26;41.36
78894;BME280;68282;42.698;23.350;2023-09-08T09:49:16;95901.63;;;23.34;41.79
78894;BME280;68282;42.698;23.350;2023-09-08T09:51:46;95907.09;;;23.39;41.50
78894;BME280;68282;42.698;23.350;2023-09-08T09:54:13;95896.69;;;23.44;40.96
78894;BME280;68282;42.698;23.350;2023-09-08T09:56:39;95900.31;;;23.45;40.15
78894;BME280;68282;42.698;23.350;2023-09-08T09:59:09;95886.44;;;23.45;41.05
78894;BME280;68282;42.698;23.350;2023-09-08T10:01:36;95887.69;;;23.53;41.17
78894;BME280;68282;42.698;23.350;2023-09-08T10:04:03;95884.78;;;23.58;41.12
78894;BME280;68282;42.698;23.350;2023-09-08T10:06:35;95874.72;;;23.62;41.35
78894;BME280;68282;42.698;23.350;2023-09-08T10:09:02;95876.56;;;23.67;41.41
78894;BME280;68282;42.698;23.350;2023-09-08T10:11:42;95874.91;;;23.66;40.68
78894;BME280;68282;42.698;23.350;2023-09-08T10:14:10;95871.75;;;23.58;41.63
78894;BME280;68282;42.698;23.350;2023-09-08T10:16:39;95872.22;;;23.60;41.54
78894;BME280;68282;42.698;23.350;2023-09-08T10:19:08;95871.09;;;23.61;41.15
78894;BME280;68282;42.698;23.350;2023-09-08T10:21:36;95865.53;;;23.61;41.60
78894;BME280;68282;42.698;23.350;2023-09-08T10:24:14;95872.34;;;23.55;41.38
78894;BME280;68282;42.698;23.350;2023-09-08T10:26:43;95869.97;;;23.62;42.00
78894;BME280;68282;42.698;23.350;2023-09-08T10:29:10;95870.88;;;23.72;40.90
78894;BME280;68282;42.698;23.350;2023-09-08T10:31:36;95865.44;;;23.67;41.33
78894;BME280;68282;42.698;23.350;2023-09-08T10:34:02;95863.19;;;23.69;41.84
78894;BME280;68282;42.698;23.350;2023-09-08T10:36:28;95862.69;;;23.67;41.82
78894;BME280;68282;42.698;23.350;2023-09-08T10:38:54;95864.00;;;23.69;41.68
78894;BME280;68282;42.698;23.350;2023-09-08T10:44:07;95856.19;;;23.71;40.96
78894;BME280;68282;42.698;23.350;2023-09-08T10:46:33;95868.94;;;23.72;40.60
78894;BME280;68282;42.698;23.350;2023-09-08T10:49:04;95854.53;;;23.70;41.22
78894;BME280;68282;42.698;23.350;2023-09-08T10:51:33;95859.78;;;23.72;41.02
78894;BME280;68282;42.698;23.350;2023-09-08T10:53:58;95860.81;;;23.76;40.78
78894;BME280;68282;42.698;23.350;2023-09-08T10:56:47;95853.38;;;23.99;40.34
78894;BME280;68282;42.698;23.350;2023-09-08T10:59:17;95858.41;;;24.11;40.86
78894;BME280;68282;42.698;23.350;2023-09-08T11:01:42;95847.28;;;24.11;40.36
78894;BME280;68282;42.698;23.350;2023-09-08T11:04:08;95858.41;;;24.11;40.24
78894;BME280;68282;42.698;23.350;2023-09-08T11:06:36;95851.06;;;24.15;39.58
78894;BME280;68282;42.698;23.350;2023-09-08T11:09:08;95859.22;;;24.12;40.57
78894;BME280;68282;42.698;23.350;2023-09-08T11:11:35;95851.69;;;24.26;40.51
78894;BME280;68282;42.698;23.350;2023-09-08T11:14:02;95843.03;;;24.50;39.80
78894;BME280;68282;42.698;23.350;2023-09-08T11:16:27;95845.88;;;24.59;40.07
78894;BME280;68282;42.698;23.350;2023-09-08T11:18:56;95853.28;;;24.64;39.73
78894;BME280;68282;42.698;23.350;2023-09-08T11:21:22;95840.13;;;24.55;39.05
78894;BME280;68282;42.698;23.350;2023-09-08T11:23:48;95835.34;;;24.70;39.55
78894;BME280;68282;42.698;23.350;2023-09-08T11:26:13;95839.50;;;24.81;39.60
78894;BME280;68282;42.698;23.350;2023-09-08T11:28:41;95836.94;;;24.85;38.64
78894;BME280;68282;42.698;23.350;2023-09-08T11:31:07;95834.22;;;25.03;38.62
78894;BME280;68282;42.698;23.350;2023-09-08T11:33:34;95833.25;;;25.07;37.63
78894;BME280;68282;42.698;23.350;2023-09-08T11:36:13;95822.41;;;25.28;37.83
78894;BME280;68282;42.698;23.350;2023-09-08T11:38:43;95817.13;;;25.27;36.96
78894;BME280;68282;42.698;23.350;2023-09-08T11:41:09;95812.06;;;25.29;37.71
78894;BME280;68282;42.698;23.350;2023-09-08T11:43:36;95807.88;;;25.40;37.73
78894;BME280;68282;42.698;23.350;2023-09-08T11:46:01;95813.19;;;25.59;37.51
78894;BME280;68282;42.698;23.350;2023-09-08T11:48:27;95806.47;;;25.69;36.96
78894;BME280;68282;42.698;23.350;2023-09-08T11:50:56;95800.91;;;25.69;37.37
78894;BME280;68282;42.698;23.350;2023-09-08T11:53:22;95790.56;;;25.61;36.56
78894;BME280;68282;42.698;23.350;2023-09-08T11:55:49;95797.78;;;25.62;36.68
78894;BME280;68282;42.698;23.350;2023-09-08T11:58:14;95797.63;;;25.76;36.61
78894;BME280;68282;42.698;23.350;2023-09-08T12:00:40;95786.38;;;25.90;36.42
78894;BME280;68282;42.698;23.350;2023-09-08T12:03:13;95796.06;;;26.10;35.88
78894;BME280;68282;42.698;23.350;2023-09-08T12:05:44;95798.69;;;26.24;35.49
78894;BME280;68282;42.698;23.350;2023-09-08T12:08:15;95798.53;;;26.29;35.62
78894;BME280;68282;42.698;23.350;2023-09-08T12:10:41;95786.56;;;26.29;35.04
78894;BME280;68282;42.698;23.350;2023-09-08T12:13:07;95783.09;;;26.41;33.95
78894;BME280;68282;42.698;23.350;2023-09-08T12:15:37;95777.53;;;26.41;34.29
78894;BME280;68282;42.698;23.350;2023-09-08T12:18:05;95787.34;;;26.47;34.42
78894;BME280;68282;42.698;23.350;2023-09-08T12:20:32;95772.94;;;26.45;34.34
78894;BME280;68282;42.698;23.350;2023-09-08T12:23:04;95777.03;;;26.38;34.37
78894;BME280;68282;42.698;23.350;2023-09-08T12:25:30;95774.75;;;26.41;34.68
78894;BME280;68282;42.698;23.350;2023-09-08T12:28:00;95771.28;;;26.44;35.18
78894;BME280;68282;42.698;23.350;2023-09-08T12:30:28;95765.88;;;26.47;34.62
78894;BME280;68282;42.698;23.350;2023-09-08T12:32:59;95758.16;;;26.53;34.99
78894;BME280;68282;42.698;23.350;2023-09-08T12:35:26;95754.06;;;26.50;34.97
78894;BME280;68282;42.698;23.350;2023-09-08T12:38:02;95760.78;;;26.49;35.24
78894;BME280;68282;42.698;23.350;2023-09-08T12:40:30;95757.50;;;26.38;34.86
78894;BME280;68282;42.698;23.350;2023-09-08T12:42:56;95746.88;;;26.23;34.72
78894;BME280;68282;42.698;23.350;2023-09-08T12:45:25;95764.09;;;26.16;34.83
78894;BME280;68282;42.698;23.350;2023-09-08T12:47:50;95757.03;;;26.01;35.30
78894;BME280;68282;42.698;23.350;2023-09-08T12:50:17;95753.91;;;26.03;35.14
78894;BME280;68282;42.698;23.350;2023-09-08T12:52:42;95749.47;;;26.02;35.24